createdAt,value
2023-04-05T00:01:56.524Z,3.93
2023-04-05T00:03:59.983Z,3.90
2023-04-05T00:06:02.912Z,3.80
2023-04-05T00:08:08.275Z,4.23
2023-04-05T00:10:10.804Z,4.00
2023-04-05T00:12:13.409Z,3.40
2023-04-05T00:14:15.741Z,4.07
2023-04-05T00:16:18.313Z,4.00
2023-04-05T00:18:23.917Z,3.87
2023-04-05T00:20:26.020Z,3.60
2023-04-05T00:22:31.903Z,3.50
2023-04-05T00:24:34.199Z,4.17
2023-04-05T00:26:36.419Z,3.37
2023-04-05T00:28:38.694Z,3.50
2023-04-05T00:30:40.813Z,3.60
2023-04-05T00:32:42.954Z,3.53
2023-04-05T00:34:45.222Z,4.03
2023-04-05T00:36:47.225Z,3.37
2023-04-05T00:38:52.110Z,3.23
2023-04-05T00:40:54.182Z,3.97
2023-04-05T00:42:57.420Z,3.33
2023-04-05T00:44:59.413Z,3.23
2023-04-05T00:47:02.935Z,3.63
2023-04-05T00:49:05.141Z,3.00
2023-04-05T00:51:09.686Z,3.67
2023-04-05T00:53:12.234Z,3.53
2023-04-05T00:55:14.454Z,3.70
2023-04-05T00:57:16.863Z,4.30
2023-04-05T00:59:19.899Z,3.50
2023-04-05T01:01:22.760Z,4.07
2023-04-05T01:03:27.642Z,3.53
2023-04-05T01:05:48.246Z,3.60
2023-04-05T01:07:57.079Z,3.70
2023-04-05T01:10:00.706Z,3.23
2023-04-05T01:12:06.767Z,4.00
2023-04-05T01:14:09.959Z,3.90
2023-04-05T01:16:12.149Z,4.50
2023-04-05T01:18:14.354Z,3.97
2023-04-05T01:20:16.329Z,3.60
2023-04-05T01:22:21.971Z,3.83
2023-04-05T01:24:30.686Z,3.70
2023-04-05T01:26:57.350Z,3.30
2023-04-05T01:29:28.123Z,4.10
2023-04-05T01:31:50.654Z,3.90
2023-04-05T01:34:14.644Z,3.87
2023-04-05T01:36:41.460Z,3.87
2023-04-05T01:38:44.311Z,3.40
2023-04-05T01:40:47.800Z,3.80
2023-04-05T01:42:49.770Z,3.77
2023-04-05T01:44:55.795Z,3.80
2023-04-05T01:46:57.821Z,4.47
2023-04-05T01:49:00.112Z,3.80
2023-04-05T01:51:02.147Z,3.47
2023-04-05T01:53:04.157Z,4.10
2023-04-05T01:55:06.651Z,4.03
2023-04-05T01:57:08.760Z,3.77
2023-04-05T01:59:10.753Z,3.90
2023-04-05T02:01:12.949Z,4.03
2023-04-05T02:03:15.195Z,3.93
2023-04-05T02:05:17.523Z,3.60
2023-04-05T02:07:19.664Z,3.70
2023-04-05T02:09:21.603Z,3.10
2023-04-05T02:11:23.640Z,3.80
2023-04-05T02:13:26.227Z,4.00
2023-04-05T02:15:28.225Z,4.37
2023-04-05T02:17:34.187Z,3.67
2023-04-05T02:19:41.164Z,3.87
2023-04-05T02:21:43.454Z,4.73
2023-04-05T02:23:45.500Z,4.80
2023-04-05T02:25:47.545Z,3.67
2023-04-05T02:27:50.209Z,4.30
2023-04-05T02:29:53.093Z,3.90
2023-04-05T02:31:55.482Z,4.10
2023-04-05T02:33:57.914Z,3.83
2023-04-05T02:35:59.994Z,3.90
2023-04-05T02:38:04.717Z,4.40
2023-04-05T02:40:13.605Z,4.00
2023-04-05T02:42:15.984Z,4.20
2023-04-05T02:44:18.168Z,3.90
2023-04-05T02:46:20.470Z,4.10
2023-04-05T02:48:22.618Z,4.60
2023-04-05T02:50:25.390Z,4.43
2023-04-05T02:52:27.563Z,4.50
2023-04-05T02:54:29.661Z,4.20
2023-04-05T02:56:35.563Z,4.40
2023-04-05T02:58:41.130Z,4.10
2023-04-05T03:00:51.077Z,4.83
2023-04-05T03:02:57.261Z,4.43
2023-04-05T03:05:02.417Z,3.80
2023-04-05T03:07:07.924Z,3.80
2023-04-05T03:09:14.408Z,4.07
2023-04-05T03:11:16.581Z,4.37
2023-04-05T03:13:22.931Z,5.10
2023-04-05T03:15:25.139Z,3.73
2023-04-05T03:17:27.248Z,4.20
2023-04-05T03:19:36.484Z,4.33
2023-04-05T03:21:55.713Z,4.70
2023-04-05T03:24:04.227Z,4.80
2023-04-05T03:26:14.248Z,4.57
2023-04-05T03:28:23.681Z,4.67
2023-04-05T03:30:29.605Z,4.57
2023-04-05T03:32:39.137Z,3.93
2023-04-05T03:35:01.648Z,4.87
2023-04-05T03:37:03.794Z,4.10
2023-04-05T03:39:14.744Z,4.23
2023-04-05T03:41:16.916Z,4.73
2023-04-05T03:43:19.264Z,4.97
2023-04-05T03:45:24.493Z,4.57
2023-04-05T03:47:27.980Z,4.90
2023-04-05T03:49:30.701Z,5.23
2023-04-05T03:51:33.501Z,5.00
2023-04-05T03:53:35.656Z,4.73
2023-04-05T03:55:37.981Z,5.27
2023-04-05T03:57:42.028Z,5.40
2023-04-05T03:59:56.959Z,5.07
2023-04-05T04:01:59.706Z,5.10
2023-04-05T04:04:02.135Z,5.10
2023-04-05T04:06:07.486Z,5.77
2023-04-05T04:08:09.946Z,4.87
2023-04-05T04:10:17.637Z,4.60
2023-04-05T04:12:23.563Z,5.67
2023-04-05T04:14:32.769Z,5.50
2023-04-05T04:17:01.025Z,5.77
2023-04-05T04:19:23.218Z,5.90
2023-04-05T04:21:45.707Z,4.77
2023-04-05T04:23:57.941Z,4.83
2023-04-05T04:26:37.612Z,5.13
2023-04-05T04:28:50.463Z,4.63
2023-04-05T04:31:05.029Z,5.17
2023-04-05T04:33:13.592Z,5.30
2023-04-05T04:35:29.070Z,5.30
2023-04-05T04:37:48.152Z,5.37
2023-04-05T04:40:18.504Z,5.40
2023-04-05T04:42:52.145Z,5.83
2023-04-05T04:45:26.481Z,6.07
2023-04-05T04:47:41.013Z,5.33
2023-04-05T04:49:57.409Z,5.57
2023-04-05T04:51:59.644Z,5.80
2023-04-05T04:54:01.985Z,6.47
2023-04-05T04:56:08.026Z,5.40
2023-04-05T04:58:11.811Z,5.73
2023-04-05T05:00:16.096Z,5.80
2023-04-05T05:02:18.536Z,6.40
2023-04-05T05:04:20.717Z,6.30
2023-04-05T05:06:22.748Z,5.83
2023-04-05T05:08:25.222Z,5.73
2023-04-05T05:10:27.289Z,5.70
2023-04-05T05:12:35.689Z,5.03
2023-04-05T05:14:38.007Z,5.40
2023-04-05T05:16:40.010Z,6.13
2023-04-05T05:18:43.013Z,5.90
2023-04-05T05:20:44.988Z,6.70
2023-04-05T05:22:47.205Z,6.20
2023-04-05T05:24:49.432Z,5.37
2023-04-05T05:26:51.661Z,5.17
2023-04-05T05:28:54.747Z,5.97
2023-04-05T05:30:57.693Z,5.40
2023-04-05T05:33:00.105Z,6.57
2023-04-05T05:35:02.212Z,5.97
2023-04-05T05:37:04.220Z,6.30
2023-04-05T05:39:06.557Z,6.00
2023-04-05T05:41:08.588Z,6.30
2023-04-05T05:43:11.139Z,6.20
2023-04-05T05:45:13.462Z,6.40
2023-04-05T05:47:15.525Z,5.93
2023-04-05T05:49:17.702Z,6.33
2023-04-05T05:51:19.812Z,6.80
2023-04-05T05:53:21.821Z,6.00
2023-04-05T05:55:23.873Z,6.90
2023-04-05T05:57:27.264Z,7.50
2023-04-05T05:59:29.513Z,6.87
2023-04-05T06:01:34.437Z,7.53
2023-04-05T06:03:36.644Z,7.07
2023-04-05T06:05:38.741Z,7.30
2023-04-05T06:07:40.844Z,6.73
2023-04-05T06:09:45.280Z,6.93
2023-04-05T06:11:55.749Z,7.10
2023-04-05T06:13:58.696Z,5.70
2023-04-05T06:16:01.839Z,6.03
2023-04-05T06:18:04.129Z,5.70
2023-04-05T06:20:06.905Z,5.60
2023-04-05T06:22:08.936Z,5.60
2023-04-05T06:24:11.090Z,5.50
2023-04-05T06:26:20.672Z,5.20
2023-04-05T06:28:22.769Z,5.60
2023-04-05T06:30:24.815Z,5.80
2023-04-05T06:32:26.901Z,5.50
2023-04-05T06:34:28.946Z,5.30
2023-04-05T06:36:32.193Z,5.30
2023-04-05T06:38:34.386Z,5.17
2023-04-05T06:40:36.734Z,4.97
2023-04-05T06:42:38.838Z,4.90
2023-04-05T06:44:43.434Z,4.63
2023-04-05T06:46:46.664Z,4.60
2023-04-05T06:48:49.916Z,4.80
2023-04-05T06:50:59.168Z,4.63
2023-04-05T06:53:01.342Z,5.00
2023-04-05T06:55:04.119Z,5.13
2023-04-05T06:57:06.367Z,4.83
2023-04-05T06:59:08.444Z,6.53
2023-04-05T07:01:11.402Z,5.20
2023-04-05T07:03:13.653Z,5.07
2023-04-05T07:05:15.785Z,5.20
2023-04-05T07:07:17.807Z,4.73
2023-04-05T07:09:20.652Z,5.07
2023-04-05T07:11:22.750Z,6.20
2023-04-05T07:13:25.882Z,4.70
2023-04-05T07:15:28.021Z,5.70
2023-04-05T07:17:30.301Z,5.70
2023-04-05T07:19:32.900Z,5.70
2023-04-05T07:21:34.856Z,5.03
2023-04-05T07:23:36.912Z,5.30
2023-04-05T07:25:40.678Z,4.57
2023-04-05T07:27:42.661Z,4.77
2023-04-05T07:29:46.580Z,4.90
2023-04-05T07:31:50.249Z,3.97
2023-04-05T07:33:52.319Z,3.80
2023-04-05T07:35:54.947Z,4.90
2023-04-05T07:37:57.048Z,3.80
2023-04-05T07:39:59.293Z,3.80
2023-04-05T07:42:01.604Z,4.30
2023-04-05T07:44:03.821Z,3.57
2023-04-05T07:46:06.004Z,2.80
2023-04-05T07:48:08.118Z,3.40
2023-04-05T07:50:12.091Z,2.90
2023-04-05T07:52:14.178Z,3.60
2023-04-05T07:54:16.343Z,3.80
2023-04-05T07:56:18.502Z,4.20
2023-04-05T07:58:20.681Z,3.37
2023-04-05T08:00:23.476Z,3.40
2023-04-05T08:02:25.653Z,2.70
2023-04-05T08:04:27.663Z,2.90
2023-04-05T08:06:29.688Z,2.77
2023-04-05T08:08:31.921Z,3.53
2023-04-05T08:10:39.211Z,3.17
2023-04-05T08:12:41.471Z,2.27
2023-04-05T08:14:43.505Z,1.93
2023-04-05T08:16:45.980Z,2.20
2023-04-05T08:18:48.267Z,2.63
2023-04-05T08:20:57.260Z,1.63
2023-04-05T08:22:59.194Z,1.83
2023-04-05T08:25:01.317Z,1.50
2023-04-05T08:27:03.479Z,2.23
2023-04-05T08:29:05.461Z,2.43
2023-04-05T08:31:07.662Z,2.00
2023-04-05T08:33:09.856Z,2.40
2023-04-05T08:35:11.953Z,1.60
2023-04-05T08:37:13.968Z,1.70
2023-04-05T08:39:16.120Z,1.77
2023-04-05T08:41:20.981Z,1.60
2023-04-05T08:43:26.042Z,1.80
2023-04-05T08:45:29.347Z,2.00
2023-04-05T08:47:32.078Z,1.70
2023-04-05T08:49:34.459Z,1.80
2023-04-05T08:51:39.282Z,1.73
2023-04-05T08:53:41.522Z,1.90
2023-04-05T08:55:44.041Z,1.70
2023-04-05T08:57:51.280Z,2.27
2023-04-05T08:59:53.529Z,1.83
2023-04-05T09:01:56.103Z,1.83
2023-04-05T09:04:21.285Z,2.10
2023-04-05T09:06:23.687Z,2.00
2023-04-05T09:08:26.064Z,2.20
2023-04-05T09:10:29.732Z,1.67
2023-04-05T09:12:32.482Z,1.60
2023-04-05T09:14:35.089Z,1.47
2023-04-05T09:16:39.426Z,1.47
2023-04-05T09:18:44.300Z,2.87
2023-04-05T09:20:46.633Z,3.90
2023-04-05T09:22:48.981Z,1.50
2023-04-05T09:24:51.184Z,1.70
2023-04-05T09:27:16.944Z,2.20
2023-04-05T09:29:30.670Z,2.20
2023-04-05T09:31:35.280Z,1.70
2023-04-05T09:33:42.882Z,1.73
2023-04-05T09:35:45.100Z,2.20
2023-04-05T09:37:55.516Z,2.30
2023-04-05T09:40:04.450Z,2.17
2023-04-05T09:42:12.011Z,1.80
2023-04-05T09:44:16.583Z,2.00
2023-04-05T09:46:37.966Z,1.87
2023-04-05T09:48:51.445Z,1.70
2023-04-05T09:51:12.520Z,1.93
2023-04-05T09:53:19.327Z,2.00
2023-04-05T09:55:28.329Z,1.83
2023-04-05T09:57:34.755Z,1.80
2023-04-05T09:59:36.969Z,1.90
2023-04-05T10:01:43.811Z,2.20
2023-04-05T10:03:50.202Z,1.70
2023-04-05T10:05:56.056Z,2.00
2023-04-05T10:07:58.361Z,1.70
2023-04-05T10:10:02.125Z,2.10
2023-04-05T10:12:04.677Z,2.13
2023-04-05T10:14:08.590Z,2.00
2023-04-05T10:16:14.050Z,2.00
2023-04-05T10:18:19.297Z,2.20
2023-04-05T10:20:22.919Z,2.40
2023-04-05T10:22:32.188Z,2.33
2023-04-05T10:24:38.452Z,1.90
2023-04-05T10:26:47.238Z,2.20
2023-04-05T10:28:53.007Z,2.50
2023-04-05T10:31:05.066Z,2.10
2023-04-05T10:33:42.279Z,2.30
2023-04-05T10:35:50.580Z,1.97
2023-04-05T10:38:04.892Z,2.10
2023-04-05T10:40:10.145Z,2.10
2023-04-05T10:42:23.789Z,1.70
2023-04-05T10:44:27.030Z,1.73
2023-04-05T10:46:30.516Z,1.87
2023-04-05T10:48:54.180Z,1.97
2023-04-05T10:50:56.934Z,2.53
2023-04-05T10:52:59.943Z,1.80
2023-04-05T10:55:03.587Z,2.27
2023-04-05T10:57:10.629Z,1.90
2023-04-05T10:59:13.931Z,2.30
2023-04-05T11:01:17.714Z,2.27
2023-04-05T11:03:44.852Z,1.80
2023-04-05T11:05:47.160Z,1.93
2023-04-05T11:07:50.659Z,2.33
2023-04-05T11:10:00.240Z,2.30
2023-04-05T11:12:02.410Z,2.43
2023-04-05T11:14:17.982Z,2.20
2023-04-05T11:16:21.710Z,2.20
2023-04-05T11:18:24.013Z,2.03
2023-04-05T11:20:26.248Z,1.90
2023-04-05T11:22:29.464Z,1.90
2023-04-05T11:24:50.897Z,2.70
2023-04-05T11:26:54.615Z,2.30
2023-04-05T11:28:58.288Z,2.23
2023-04-05T11:31:16.696Z,2.00
2023-04-05T11:33:58.624Z,2.40
2023-04-05T11:36:03.134Z,2.37
2023-04-05T11:38:05.458Z,2.30
2023-04-05T11:40:32.779Z,2.27
2023-04-05T11:42:35.200Z,2.30
2023-04-05T11:44:44.432Z,2.70
2023-04-05T11:46:46.800Z,2.30
2023-04-05T11:48:52.126Z,1.90
2023-04-05T11:50:54.634Z,1.90
2023-04-05T11:53:13.206Z,1.93
2023-04-05T11:55:15.464Z,1.70
2023-04-05T11:57:22.911Z,1.80
2023-04-05T11:59:35.877Z,3.27
2023-04-05T12:01:39.690Z,6.17
2023-04-05T12:03:42.048Z,1.90
2023-04-05T12:05:54.330Z,2.33
2023-04-05T12:07:56.803Z,2.30
2023-04-05T12:10:02.240Z,2.13
2023-04-05T12:12:04.456Z,2.30
2023-04-05T12:14:06.581Z,2.30
2023-04-05T12:16:09.700Z,2.17
2023-04-05T12:18:15.846Z,2.57
2023-04-05T12:20:20.173Z,1.90
2023-04-05T12:22:22.569Z,2.10
2023-04-05T12:24:24.929Z,2.17
2023-04-05T12:26:28.721Z,1.97
2023-04-05T12:28:58.370Z,2.30
2023-04-05T12:31:00.648Z,2.33
2023-04-05T12:33:09.552Z,2.00
2023-04-05T12:35:20.553Z,2.07
2023-04-05T12:37:22.969Z,1.97
2023-04-05T12:39:29.444Z,2.30
2023-04-05T12:41:32.021Z,2.10
2023-04-05T12:43:42.045Z,2.40
2023-04-05T12:45:44.781Z,2.57
2023-04-05T12:47:57.577Z,2.17
2023-04-05T12:50:10.823Z,2.20
2023-04-05T12:52:19.865Z,2.03
2023-04-05T12:54:23.707Z,2.30
2023-04-05T12:56:29.717Z,2.13
2023-04-05T12:58:36.807Z,2.10
2023-04-05T13:00:39.172Z,1.90
2023-04-05T13:02:41.537Z,2.40
2023-04-05T13:04:44.065Z,2.20
2023-04-05T13:06:47.836Z,2.50
2023-04-05T13:08:50.366Z,2.03
2023-04-05T13:10:53.531Z,2.07
2023-04-05T13:12:56.993Z,2.50
2023-04-05T13:14:59.124Z,2.43
2023-04-05T13:17:01.442Z,2.30
2023-04-05T13:19:03.626Z,2.07
2023-04-05T13:21:08.043Z,2.47
2023-04-05T13:23:13.526Z,2.20
2023-04-05T13:25:16.045Z,2.00
2023-04-05T13:27:18.268Z,2.20
2023-04-05T13:29:20.553Z,2.70
2023-04-05T13:31:22.781Z,2.83
2023-04-05T13:33:24.961Z,2.20
2023-04-05T13:35:27.154Z,2.33
2023-04-05T13:37:29.373Z,2.10
2023-04-05T13:39:31.601Z,2.57
2023-04-05T13:41:33.976Z,2.47
2023-04-05T13:43:36.115Z,2.13
2023-04-05T13:45:39.446Z,2.60
2023-04-05T13:47:42.033Z,1.97
2023-04-05T13:49:44.287Z,2.30
2023-04-05T13:51:46.394Z,2.13
2023-04-05T13:53:48.634Z,2.90
2023-04-05T13:55:50.924Z,2.87
2023-04-05T13:57:53.086Z,2.27
2023-04-05T13:59:55.461Z,2.13
2023-04-05T14:01:57.718Z,2.40
2023-04-05T14:04:00.020Z,2.53
2023-04-05T14:06:02.261Z,2.73
2023-04-05T14:08:04.481Z,2.63
2023-04-05T14:10:07.261Z,2.77
2023-04-05T14:12:09.554Z,2.47
2023-04-05T14:14:11.766Z,2.40
2023-04-05T14:16:14.022Z,2.50
2023-04-05T14:18:16.419Z,2.10
2023-04-05T14:20:18.720Z,2.30
2023-04-05T14:22:21.672Z,2.73
2023-04-05T14:24:24.106Z,2.20
2023-04-05T14:26:27.646Z,2.83
2023-04-05T14:28:29.955Z,2.80
2023-04-05T14:30:33.621Z,2.63
2023-04-05T14:32:35.953Z,3.00
2023-04-05T14:34:38.240Z,2.53
2023-04-05T14:36:40.855Z,2.47
2023-04-05T14:38:43.096Z,2.70
2023-04-05T14:40:45.599Z,2.60
2023-04-05T14:42:50.135Z,2.30
2023-04-05T14:44:52.817Z,2.60
2023-04-05T14:46:55.545Z,2.27
2023-04-05T14:48:57.830Z,2.07
2023-04-05T14:51:00.612Z,2.53
2023-04-05T14:53:03.256Z,2.30
2023-04-05T14:55:05.888Z,2.60
2023-04-05T14:57:08.191Z,2.17
2023-04-05T14:59:10.521Z,2.63
2023-04-05T15:01:13.333Z,2.57
2023-04-05T15:03:16.242Z,2.97
2023-04-05T15:05:19.053Z,2.50
2023-04-05T15:07:21.915Z,1.97
2023-04-05T15:09:24.214Z,2.67
2023-04-05T15:11:27.065Z,2.27
2023-04-05T15:13:29.404Z,2.90
2023-04-05T15:15:32.835Z,3.07
2023-04-05T15:17:35.129Z,2.67
2023-04-05T15:19:37.789Z,2.20
2023-04-05T15:21:40.627Z,2.70
2023-04-05T15:23:42.850Z,2.60
2023-04-05T15:25:47.983Z,2.20
2023-04-05T15:27:51.181Z,2.30
2023-04-05T15:29:53.402Z,2.10
2023-04-05T15:31:55.895Z,2.50
2023-04-05T15:33:58.473Z,2.60
2023-04-05T15:36:01.141Z,2.60
2023-04-05T15:38:03.590Z,2.23
2023-04-05T15:40:07.312Z,2.63
2023-04-05T15:42:09.598Z,2.20
2023-04-05T15:44:11.924Z,2.67
2023-04-05T15:46:14.255Z,2.23
2023-04-05T15:48:16.777Z,2.50
2023-04-05T15:50:20.469Z,3.17
2023-04-05T15:52:22.806Z,2.37
2023-04-05T15:54:25.058Z,3.23
2023-04-05T15:56:27.789Z,2.17
2023-04-05T15:58:30.064Z,2.33
2023-04-05T16:00:33.588Z,2.50
2023-04-05T16:02:37.778Z,2.23
2023-04-05T16:04:40.146Z,2.80
2023-04-05T16:06:42.477Z,2.33
2023-04-05T16:08:44.712Z,2.83
2023-04-05T16:10:46.900Z,2.63
2023-04-05T16:12:49.306Z,2.40
2023-04-05T16:14:51.552Z,2.63
2023-04-05T16:16:54.629Z,2.80
2023-04-05T16:18:58.265Z,2.80
2023-04-05T16:21:00.482Z,3.00
2023-04-05T16:23:03.078Z,2.50
2023-04-05T16:25:05.838Z,2.50
2023-04-05T16:27:08.201Z,3.00
2023-04-05T16:29:10.554Z,2.30
2023-04-05T16:31:12.821Z,2.47
2023-04-05T16:33:15.060Z,2.57
2023-04-05T16:35:17.492Z,2.97
2023-04-05T16:37:20.827Z,2.33
2023-04-05T16:39:23.169Z,2.47
2023-04-05T16:41:25.611Z,2.30
2023-04-05T16:43:27.884Z,2.13
2023-04-05T16:45:32.015Z,2.43
2023-04-05T16:47:34.334Z,2.40
2023-04-05T16:49:37.017Z,2.50
2023-04-05T16:51:39.367Z,2.70
2023-04-05T16:53:41.532Z,3.20
2023-04-05T16:55:43.809Z,2.97
2023-04-05T16:57:46.181Z,3.00
2023-04-05T16:59:48.453Z,3.00
2023-04-05T17:01:50.862Z,3.43
2023-04-05T17:03:53.134Z,2.67
2023-04-05T17:05:55.757Z,2.73
2023-04-05T17:07:58.064Z,3.53
2023-04-05T17:10:02.503Z,3.43
2023-04-05T17:12:04.981Z,2.80
2023-04-05T17:14:07.756Z,2.80
2023-04-05T17:16:10.053Z,2.40
2023-04-05T17:18:12.477Z,3.13
2023-04-05T17:20:14.774Z,3.47
2023-04-05T17:22:17.008Z,4.37
2023-04-05T17:24:19.245Z,3.10
2023-04-05T17:26:23.267Z,4.20
2023-04-05T17:28:25.864Z,3.57
2023-04-05T17:30:28.177Z,4.00
2023-04-05T17:32:30.395Z,3.30
2023-04-05T17:34:32.794Z,3.73
2023-04-05T17:36:35.421Z,3.30
2023-04-05T17:38:37.808Z,4.10
2023-04-05T17:40:40.180Z,3.60
2023-04-05T17:42:42.464Z,3.03
2023-04-05T17:44:44.785Z,3.80
2023-04-05T17:46:54.348Z,4.10
2023-04-05T17:48:59.948Z,3.90
2023-04-05T17:51:09.175Z,3.60
2023-04-05T17:53:11.757Z,7.07
2023-04-05T17:55:13.963Z,8.40
2023-04-05T17:57:16.382Z,10.17
2023-04-05T17:59:18.834Z,9.37
2023-04-05T18:01:21.321Z,8.30
2023-04-05T18:03:24.212Z,5.43
2023-04-05T18:05:27.214Z,5.07
2023-04-05T18:07:29.444Z,4.87
2023-04-05T18:09:33.184Z,4.83
2023-04-05T18:11:36.284Z,4.70
2023-04-05T18:13:38.516Z,4.60
2023-04-05T18:15:41.403Z,4.13
2023-04-05T18:17:45.538Z,3.80
2023-04-05T18:19:49.403Z,4.20
2023-04-05T18:21:51.648Z,4.00
2023-04-05T18:23:53.995Z,3.97
2023-04-05T18:25:56.343Z,3.60
2023-04-05T18:27:58.796Z,3.40
2023-04-05T18:30:01.691Z,3.87
2023-04-05T18:32:05.115Z,3.37
2023-04-05T18:34:07.461Z,3.60
2023-04-05T18:36:09.763Z,2.97
2023-04-05T18:38:12.442Z,3.37
2023-04-05T18:40:15.125Z,3.07
2023-04-05T18:42:17.467Z,3.13
2023-04-05T18:44:19.683Z,3.00
2023-04-05T18:46:23.083Z,3.40
2023-04-05T18:48:25.569Z,3.10
2023-04-05T18:50:28.032Z,3.07
2023-04-05T18:52:34.168Z,3.43
2023-04-05T18:54:37.820Z,4.13
2023-04-05T18:56:41.661Z,3.77
2023-04-05T18:58:44.816Z,4.63
2023-04-05T19:00:47.014Z,4.70
2023-04-05T19:02:49.294Z,5.30
2023-04-05T19:04:52.705Z,5.63
2023-04-05T19:06:57.690Z,5.70
2023-04-05T19:08:59.861Z,6.50
2023-04-05T19:11:02.074Z,6.77
2023-04-05T19:13:04.412Z,6.10
2023-04-05T19:15:07.302Z,5.83
2023-04-05T19:17:09.793Z,6.67
2023-04-05T19:19:12.186Z,7.17
2023-04-05T19:21:14.517Z,6.10
2023-04-05T19:23:16.910Z,5.17
2023-04-05T19:25:19.347Z,5.63
2023-04-05T19:27:21.902Z,4.90
2023-04-05T19:29:24.260Z,3.93
2023-04-05T19:31:27.538Z,3.43
2023-04-05T19:33:33.406Z,4.07
2023-04-05T19:35:36.448Z,3.37
2023-04-05T19:37:38.847Z,3.40
2023-04-05T19:39:42.518Z,3.70
2023-04-05T19:41:44.933Z,4.10
2023-04-05T19:43:47.819Z,4.27
2023-04-05T19:45:55.785Z,4.77
2023-04-05T19:48:00.380Z,3.90
2023-04-05T19:50:03.453Z,4.40
2023-04-05T19:52:09.702Z,3.87
2023-04-05T19:54:14.711Z,4.17
2023-04-05T19:56:28.546Z,4.00
2023-04-05T19:58:31.126Z,3.17
2023-04-05T20:00:37.269Z,3.90
2023-04-05T20:02:39.637Z,3.50
2023-04-05T20:04:42.321Z,3.57
2023-04-05T20:06:53.216Z,3.03
2023-04-05T20:09:01.657Z,3.00
2023-04-05T20:11:07.935Z,3.87
2023-04-05T20:13:10.290Z,3.70
2023-04-05T20:15:13.004Z,2.90
2023-04-05T20:17:18.102Z,3.50
2023-04-05T20:19:30.922Z,2.30
2023-04-05T20:21:33.424Z,2.60
2023-04-05T20:23:36.247Z,3.33
2023-04-05T20:25:42.211Z,2.80
2023-04-05T20:27:47.650Z,3.20
2023-04-05T20:29:50.243Z,4.30
2023-04-05T20:31:52.692Z,3.20
2023-04-05T20:33:58.886Z,3.63
2023-04-05T20:36:01.375Z,4.30
2023-04-05T20:38:03.673Z,3.63
2023-04-05T20:40:06.408Z,5.07
2023-04-05T20:42:09.951Z,4.23
2023-04-05T20:44:12.361Z,5.17
2023-04-05T20:46:16.054Z,7.30
2023-04-05T20:48:18.394Z,6.83
2023-04-05T20:50:20.611Z,7.60
2023-04-05T20:52:22.872Z,7.40
2023-04-05T20:54:25.211Z,7.17
2023-04-05T20:56:27.648Z,6.50
2023-04-05T20:58:30.512Z,6.27
2023-04-05T21:00:32.846Z,4.97
2023-04-05T21:02:35.235Z,5.57
2023-04-05T21:04:37.677Z,6.23
2023-04-05T21:06:39.936Z,6.50
2023-04-05T21:08:42.291Z,7.00
2023-04-05T21:10:44.611Z,6.13
2023-04-05T21:12:46.806Z,6.40
2023-04-05T21:14:49.058Z,6.00
2023-04-05T21:16:51.352Z,6.00
2023-04-05T21:18:53.597Z,5.67
2023-04-05T21:20:55.814Z,5.70
2023-04-05T21:22:59.214Z,6.40
2023-04-05T21:25:01.530Z,7.20
2023-04-05T21:27:03.916Z,6.10
2023-04-05T21:29:06.371Z,5.50
2023-04-05T21:31:08.936Z,5.20
2023-04-05T21:33:11.580Z,5.80
2023-04-05T21:35:14.049Z,5.87
2023-04-05T21:37:16.307Z,5.70
2023-04-05T21:39:18.653Z,5.03
2023-04-05T21:41:21.239Z,5.00
2023-04-05T21:43:23.483Z,5.37
2023-04-05T21:45:26.183Z,5.23
2023-04-05T21:47:28.403Z,4.50
2023-04-05T21:49:30.702Z,4.43
2023-04-05T21:51:32.976Z,5.00
2023-04-05T21:53:35.424Z,4.70
2023-04-05T21:55:37.717Z,4.10
2023-04-05T21:57:40.234Z,4.30
2023-04-05T21:59:42.534Z,4.43
2023-04-05T22:01:44.836Z,4.60
2023-04-05T22:03:47.235Z,4.10
2023-04-05T22:05:49.661Z,4.30
2023-04-05T22:07:51.991Z,4.53
2023-04-05T22:09:55.023Z,4.20
2023-04-05T22:11:57.828Z,4.57
2023-04-05T22:14:00.674Z,4.57
2023-04-05T22:16:03.262Z,4.13
2023-04-05T22:18:05.834Z,4.40
2023-04-05T22:20:08.734Z,4.40
2023-04-05T22:22:13.028Z,4.67
2023-04-05T22:24:15.619Z,5.03
2023-04-05T22:26:17.956Z,6.70
2023-04-05T22:28:21.646Z,4.90
2023-04-05T22:30:23.770Z,5.33
2023-04-05T22:32:26.048Z,5.90
2023-04-05T22:34:28.220Z,5.90
2023-04-05T22:36:31.522Z,5.27
2023-04-05T22:38:33.613Z,5.23
2023-04-05T22:40:36.082Z,4.70
2023-04-05T22:42:38.990Z,4.80
2023-04-05T22:44:41.252Z,4.37
2023-04-05T22:46:43.418Z,4.40
2023-04-05T22:48:45.620Z,3.93
2023-04-05T22:50:47.886Z,3.73
2023-04-05T22:52:49.992Z,3.93
2023-04-05T22:54:52.080Z,4.00
2023-04-05T22:56:54.232Z,3.70
2023-04-05T22:58:56.574Z,3.73
2023-04-05T23:00:58.745Z,3.70
2023-04-05T23:03:01.585Z,4.53
2023-04-05T23:05:03.997Z,4.77
2023-04-05T23:07:06.280Z,4.70
2023-04-05T23:09:09.029Z,4.03
2023-04-05T23:11:11.624Z,4.70
2023-04-05T23:13:13.903Z,4.90
2023-04-05T23:15:16.216Z,4.20
2023-04-05T23:17:18.429Z,4.80
2023-04-05T23:19:20.557Z,4.00
2023-04-05T23:21:22.805Z,4.43
2023-04-05T23:23:24.925Z,4.00
2023-04-05T23:25:27.152Z,4.27
2023-04-05T23:27:29.575Z,4.23
2023-04-05T23:29:31.697Z,5.17
2023-04-05T23:31:33.841Z,4.77
2023-04-05T23:33:36.147Z,4.53
2023-04-05T23:35:38.309Z,4.33
2023-04-05T23:37:40.450Z,4.50
2023-04-05T23:39:42.787Z,4.80
2023-04-05T23:41:44.925Z,5.03
2023-04-05T23:43:47.196Z,4.83
2023-04-05T23:45:49.299Z,4.73
2023-04-05T23:47:52.461Z,4.63
2023-04-05T23:49:54.577Z,5.07
2023-04-05T23:51:56.733Z,5.13
2023-04-05T23:53:59.007Z,5.30
2023-04-05T23:56:01.453Z,4.50
2023-04-05T23:58:03.573Z,4.53
